sensor_id;sensor_type;location;lat;lon;timestamp;pressure;altitude;pressure_sealevel;temperature;humidity
56558;BME280;43358;50.356;12.456;2023-03-15T00:00:06;94744;;;1.3;92.5
56558;BME280;43358;50.356;12.456;2023-03-15T00:01:09;94741;;;1.3;93.2
56558;BME280;43358;50.356;12.456;2023-03-15T00:02:10;94748;;;1.3;91.5
56558;BME280;43358;50.356;12.456;2023-03-15T00:03:12;94750;;;1.3;90.7
56558;BME280;43358;50.356;12.456;2023-03-15T00:04:14;94750;;;1.3;92.6
56558;BME280;43358;50.356;12.456;2023-03-15T00:05:16;94754;;;1.3;91.6
56558;BME280;43358;50.356;12.456;2023-03-15T00:06:18;94756;;;1.3;93.4
56558;BME280;43358;50.356;12.456;2023-03-15T00:07:21;94753;;;1.3;92.4
56558;BME280;43358;50.356;12.456;2023-03-15T00:08:23;94751;;;1.3;92.6
56558;BME280;43358;50.356;12.456;2023-03-15T00:09:25;94752;;;1.3;92.6
56558;BME280;43358;50.356;12.456;2023-03-15T00:10:28;94749;;;1.3;92.5
56558;BME280;43358;50.356;12.456;2023-03-15T00:11:31;94753;;;1.3;92.5
56558;BME280;43358;50.356;12.456;2023-03-15T00:12:34;94749;;;1.2;92.2
56558;BME280;43358;50.356;12.456;2023-03-15T00:13:36;94753;;;1.2;92.4
56558;BME280;43358;50.356;12.456;2023-03-15T00:14:38;94751;;;1.2;93.1
56558;BME280;43358;50.356;12.456;2023-03-15T00:16:17;94748;;;1.3;93.1
56558;BME280;43358;50.356;12.456;2023-03-15T00:17:17;94749;;;1.2;92.9
56558;BME280;43358;50.356;12.456;2023-03-15T00:18:17;94749;;;1.3;92.9
56558;BME280;43358;50.356;12.456;2023-03-15T00:19:17;94747;;;1.3;92.3
56558;BME280;43358;50.356;12.456;2023-03-15T00:20:17;94748;;;1.3;91.9
56558;BME280;43358;50.356;12.456;2023-03-15T00:21:17;94748;;;1.3;91.9
56558;BME280;43358;50.356;12.456;2023-03-15T00:22:17;94751;;;1.3;91.6
56558;BME280;43358;50.356;12.456;2023-03-15T00:23:17;94750;;;1.2;91.7
56558;BME280;43358;50.356;12.456;2023-03-15T00:24:17;94752;;;1.3;93.3
56558;BME280;43358;50.356;12.456;2023-03-15T00:25:17;94752;;;1.3;92.8
56558;BME280;43358;50.356;12.456;2023-03-15T00:26:17;94755;;;1.3;92.8
56558;BME280;43358;50.356;12.456;2023-03-15T00:27:17;94760;;;1.4;92
56558;BME280;43358;50.356;12.456;2023-03-15T00:28:17;94760;;;1.4;90.6
56558;BME280;43358;50.356;12.456;2023-03-15T00:29:17;94760;;;1.3;91.2
56558;BME280;43358;50.356;12.456;2023-03-15T00:30:17;94766;;;1.4;92
56558;BME280;43358;50.356;12.456;2023-03-15T00:31:18;94770;;;1.3;92
56558;BME280;43358;50.356;12.456;2023-03-15T00:32:36;94767;;;1.3;92
56558;BME280;43358;50.356;12.456;2023-03-15T00:33:37;94772;;;1.3;92.3
56558;BME280;43358;50.356;12.456;2023-03-15T00:34:39;94772;;;1.3;92.2
56558;BME280;43358;50.356;12.456;2023-03-15T00:35:42;94770;;;1.3;91.3
56558;BME280;43358;50.356;12.456;2023-03-15T00:36:43;94766;;;1.3;92.2
56558;BME280;43358;50.356;12.456;2023-03-15T00:37:45;94767;;;1.3;92.3
56558;BME280;43358;50.356;12.456;2023-03-15T00:39:02;94767;;;1.3;92.3
56558;BME280;43358;50.356;12.456;2023-03-15T00:39:49;94766;;;1.4;92
56558;BME280;43358;50.356;12.456;2023-03-15T00:40:51;94764;;;1.4;92.1
56558;BME280;43358;50.356;12.456;2023-03-15T00:41:53;94766;;;1.4;91.6
56558;BME280;43358;50.356;12.456;2023-03-15T00:42:55;94766;;;1.4;91.2
56558;BME280;43358;50.356;12.456;2023-03-15T00:43:57;94766;;;1.4;91.6
56558;BME280;43358;50.356;12.456;2023-03-15T00:44:59;94768;;;1.4;91.5
56558;BME280;43358;50.356;12.456;2023-03-15T00:46:02;94763;;;1.4;91.5
56558;BME280;43358;50.356;12.456;2023-03-15T00:47:03;94761;;;1.4;91.3
56558;BME280;43358;50.356;12.456;2023-03-15T00:48:05;94762;;;1.4;91.7
56558;BME280;43358;50.356;12.456;2023-03-15T00:49:07;94762;;;1.4;92.2
56558;BME280;43358;50.356;12.456;2023-03-15T00:50:10;94762;;;1.3;92.5
56558;BME280;43358;50.356;12.456;2023-03-15T00:51:12;94766;;;1.3;92.6
56558;BME280;43358;50.356;12.456;2023-03-15T00:52:13;94765;;;1.3;93
56558;BME280;43358;50.356;12.456;2023-03-15T00:53:15;94767;;;1.2;92.7
56558;BME280;43358;50.356;12.456;2023-03-15T00:54:17;94769;;;1.1;93.5
56558;BME280;43358;50.356;12.456;2023-03-15T00:55:19;94771;;;1.1;93.5
56558;BME280;43358;50.356;12.456;2023-03-15T00:56:22;94768;;;1.1;93.8
56558;BME280;43358;50.356;12.456;2023-03-15T00:57:23;94768;;;1.1;93.8
56558;BME280;43358;50.356;12.456;2023-03-15T00:58:25;94766;;;1.1;94.2
56558;BME280;43358;50.356;12.456;2023-03-15T00:59:28;94772;;;1;94.4
56558;BME280;43358;50.356;12.456;2023-03-15T01:00:29;94775;;;1.1;94.7
56558;BME280;43358;50.356;12.456;2023-03-15T01:01:31;94775;;;1;95.1
56558;BME280;43358;50.356;12.456;2023-03-15T01:02:33;94776;;;1.1;94.9
56558;BME280;43358;50.356;12.456;2023-03-15T01:03:36;94776;;;1.1;94.7
56558;BME280;43358;50.356;12.456;2023-03-15T01:04:37;94775;;;1.1;94.7
56558;BME280;43358;50.356;12.456;2023-03-15T01:06:41;94777;;;1;95.3
56558;BME280;43358;50.356;12.456;2023-03-15T01:07:44;94777;;;1;95.2
56558;BME280;43358;50.356;12.456;2023-03-15T01:08:46;94778;;;1;95.3
56558;BME280;43358;50.356;12.456;2023-03-15T01:09:47;94777;;;1;95.5
56558;BME280;43358;50.356;12.456;2023-03-15T01:10:49;94778;;;1.1;95.3
56558;BME280;43358;50.356;12.456;2023-03-15T01:11:51;94778;;;1.1;95
56558;BME280;43358;50.356;12.456;2023-03-15T01:12:54;94778;;;1.1;94.7
56558;BME280;43358;50.356;12.456;2023-03-15T01:13:57;94775;;;1.1;94.6
56558;BME280;43358;50.356;12.456;2023-03-15T01:14:59;94773;;;1.1;94.8
56558;BME280;43358;50.356;12.456;2023-03-15T01:16:01;94774;;;1;94.7
56558;BME280;43358;50.356;12.456;2023-03-15T01:17:03;94772;;;0.9;94.8
56558;BME280;43358;50.356;12.456;2023-03-15T01:18:04;94774;;;0.9;95
56558;BME280;43358;50.356;12.456;2023-03-15T01:19:06;94779;;;0.8;95.4
56558;BME280;43358;50.356;12.456;2023-03-15T01:20:09;94778;;;0.8;95.8
56558;BME280;43358;50.356;12.456;2023-03-15T01:21:11;94778;;;0.8;95.9
56558;BME280;43358;50.356;12.456;2023-03-15T01:22:12;94779;;;0.7;96.1
56558;BME280;43358;50.356;12.456;2023-03-15T01:23:14;94780;;;0.7;96.2
56558;BME280;43358;50.356;12.456;2023-03-15T01:24:16;94781;;;0.7;96.3
56558;BME280;43358;50.356;12.456;2023-03-15T01:25:18;94781;;;0.7;96.5
56558;BME280;43358;50.356;12.456;2023-03-15T01:26:20;94782;;;0.6;96.6
56558;BME280;43358;50.356;12.456;2023-03-15T01:27:22;94785;;;0.6;96.7
56558;BME280;43358;50.356;12.456;2023-03-15T01:28:24;94786;;;0.6;96.6
56558;BME280;43358;50.356;12.456;2023-03-15T01:29:26;94786;;;0.6;96.7
56558;BME280;43358;50.356;12.456;2023-03-15T01:30:28;94789;;;0.6;96.8
56558;BME280;43358;50.356;12.456;2023-03-15T01:31:30;94788;;;0.6;97.1
56558;BME280;43358;50.356;12.456;2023-03-15T01:32:32;94789;;;0.7;97.3
56558;BME280;43358;50.356;12.456;2023-03-15T01:33:35;94788;;;0.7;97.2
56558;BME280;43358;50.356;12.456;2023-03-15T01:34:38;94792;;;0.7;97
56558;BME280;43358;50.356;12.456;2023-03-15T01:35:40;94797;;;0.7;97.1
56558;BME280;43358;50.356;12.456;2023-03-15T01:36:42;94797;;;0.7;97
56558;BME280;43358;50.356;12.456;2023-03-15T01:37:44;94796;;;0.7;96.8
56558;BME280;43358;50.356;12.456;2023-03-15T01:38:46;94800;;;0.7;96.9
56558;BME280;43358;50.356;12.456;2023-03-15T01:39:49;94801;;;0.6;96.8
56558;BME280;43358;50.356;12.456;2023-03-15T01:40:50;94802;;;0.6;97
56558;BME280;43358;50.356;12.456;2023-03-15T01:41:52;94804;;;0.6;97
56558;BME280;43358;50.356;12.456;2023-03-15T01:43:10;94807;;;0.6;97
56558;BME280;43358;50.356;12.456;2023-03-15T01:43:56;94812;;;0.6;97.2
56558;BME280;43358;50.356;12.456;2023-03-15T01:44:58;94817;;;0.6;97.2
56558;BME280;43358;50.356;12.456;2023-03-15T01:46:03;94816;;;0.6;97.2
56558;BME280;43358;50.356;12.456;2023-03-15T01:47:02;94817;;;0.6;97.3
56558;BME280;43358;50.356;12.456;2023-03-15T01:48:05;94818;;;0.6;97.4
56558;BME280;43358;50.356;12.456;2023-03-15T01:49:07;94818;;;0.6;97.3
56558;BME280;43358;50.356;12.456;2023-03-15T01:50:09;94819;;;0.6;97.4
56558;BME280;43358;50.356;12.456;2023-03-15T01:51:12;94820;;;0.6;97.3
56558;BME280;43358;50.356;12.456;2023-03-15T01:52:14;94815;;;0.6;97.4
56558;BME280;43358;50.356;12.456;2023-03-15T01:53:15;94818;;;0.6;97.2
56558;BME280;43358;50.356;12.456;2023-03-15T01:54:18;94819;;;0.7;96.7
56558;BME280;43358;50.356;12.456;2023-03-15T01:55:21;94821;;;0.7;96.7
56558;BME280;43358;50.356;12.456;2023-03-15T01:56:23;94819;;;0.7;96.5
56558;BME280;43358;50.356;12.456;2023-03-15T01:57:26;94821;;;0.7;96.5
56558;BME280;43358;50.356;12.456;2023-03-15T01:58:27;94826;;;0.6;96.6
56558;BME280;43358;50.356;12.456;2023-03-15T01:59:31;94826;;;0.6;96.7
56558;BME280;43358;50.356;12.456;2023-03-15T02:00:31;94829;;;0.5;97.1
56558;BME280;43358;50.356;12.456;2023-03-15T02:01:33;94827;;;0.5;97.1
56558;BME280;43358;50.356;12.456;2023-03-15T02:02:36;94832;;;0.5;97.2
56558;BME280;43358;50.356;12.456;2023-03-15T02:03:40;94829;;;0.5;97.3
56558;BME280;43358;50.356;12.456;2023-03-15T02:04:41;94831;;;0.4;97.4
56558;BME280;43358;50.356;12.456;2023-03-15T02:05:44;94834;;;0.4;97.5
56558;BME280;43358;50.356;12.456;2023-03-15T02:07:17;94831;;;0.4;97.7
56558;BME280;43358;50.356;12.456;2023-03-15T02:08:17;94840;;;0.4;97.5
56558;BME280;43358;50.356;12.456;2023-03-15T02:09:17;94842;;;0.4;97.6
56558;BME280;43358;50.356;12.456;2023-03-15T02:10:18;94843;;;0.4;97.8
56558;BME280;43358;50.356;12.456;2023-03-15T02:11:18;94842;;;0.4;97.9
56558;BME280;43358;50.356;12.456;2023-03-15T02:12:17;94841;;;0.4;98.1
56558;BME280;43358;50.356;12.456;2023-03-15T02:13:18;94838;;;0.5;97.9
56558;BME280;43358;50.356;12.456;2023-03-15T02:14:17;94833;;;0.5;97.4
56558;BME280;43358;50.356;12.456;2023-03-15T02:15:17;94834;;;0.5;97.2
56558;BME280;43358;50.356;12.456;2023-03-15T02:16:17;94838;;;0.5;97.2
56558;BME280;43358;50.356;12.456;2023-03-15T02:17:17;94838;;;0.5;97.2
56558;BME280;43358;50.356;12.456;2023-03-15T02:18:18;94838;;;0.5;97.1
56558;BME280;43358;50.356;12.456;2023-03-15T02:19:22;94840;;;0.5;97.2
56558;BME280;43358;50.356;12.456;2023-03-15T02:20:22;94844;;;0.5;97
56558;BME280;43358;50.356;12.456;2023-03-15T02:21:21;94849;;;0.5;97.1
56558;BME280;43358;50.356;12.456;2023-03-15T02:22:22;94849;;;0.5;97.3
56558;BME280;43358;50.356;12.456;2023-03-15T02:23:21;94851;;;0.4;97.4
56558;BME280;43358;50.356;12.456;2023-03-15T02:24:24;94850;;;0.4;97.6
56558;BME280;43358;50.356;12.456;2023-03-15T02:25:26;94854;;;0.4;97.6
56558;BME280;43358;50.356;12.456;2023-03-15T02:26:27;94852;;;0.4;97.7
56558;BME280;43358;50.356;12.456;2023-03-15T02:27:29;94857;;;0.4;97.7
56558;BME280;43358;50.356;12.456;2023-03-15T02:28:30;94856;;;0.4;97.8
56558;BME280;43358;50.356;12.456;2023-03-15T02:29:32;94858;;;0.4;97.9
56558;BME280;43358;50.356;12.456;2023-03-15T02:30:35;94856;;;0.4;97.8
56558;BME280;43358;50.356;12.456;2023-03-15T02:31:39;94861;;;0.4;97.7
56558;BME280;43358;50.356;12.456;2023-03-15T02:32:40;94861;;;0.4;97.7
56558;BME280;43358;50.356;12.456;2023-03-15T02:33:43;94862;;;0.4;97.7
56558;BME280;43358;50.356;12.456;2023-03-15T02:34:44;94864;;;0.4;97.7
56558;BME280;43358;50.356;12.456;2023-03-15T02:35:46;94863;;;0.4;97.7
56558;BME280;43358;50.356;12.456;2023-03-15T02:36:48;94863;;;0.4;97.7
56558;BME280;43358;50.356;12.456;2023-03-15T02:37:50;94864;;;0.4;97.7
56558;BME280;43358;50.356;12.456;2023-03-15T02:38:53;94864;;;0.4;97.7
56558;BME280;43358;50.356;12.456;2023-03-15T02:39:55;94865;;;0.4;97.5
56558;BME280;43358;50.356;12.456;2023-03-15T02:40:57;94869;;;0.4;97.7
56558;BME280;43358;50.356;12.456;2023-03-15T02:41:59;94866;;;0.5;97.5
56558;BME280;43358;50.356;12.456;2023-03-15T02:43:02;94867;;;0.5;97.3
56558;BME280;43358;50.356;12.456;2023-03-15T02:44:05;94865;;;0.5;97.4
56558;BME280;43358;50.356;12.456;2023-03-15T02:45:06;94870;;;0.5;97.3
56558;BME280;43358;50.356;12.456;2023-03-15T02:46:07;94870;;;0.4;97.3
56558;BME280;43358;50.356;12.456;2023-03-15T02:47:10;94867;;;0.4;97.5
56558;BME280;43358;50.356;12.456;2023-03-15T02:48:12;94872;;;0.4;97.4
56558;BME280;43358;50.356;12.456;2023-03-15T02:49:14;94869;;;0.4;97.3
56558;BME280;43358;50.356;12.456;2023-03-15T02:50:16;94871;;;0.3;97.6
56558;BME280;43358;50.356;12.456;2023-03-15T02:51:18;94871;;;0.4;97.9
56558;BME280;43358;50.356;12.456;2023-03-15T02:52:22;94870;;;0.4;97.7
56558;BME280;43358;50.356;12.456;2023-03-15T02:53:23;94869;;;0.4;97.4
56558;BME280;43358;50.356;12.456;2023-03-15T02:54:25;94870;;;0.4;97.1
56558;BME280;43358;50.356;12.456;2023-03-15T02:55:27;94874;;;0.3;97.2
56558;BME280;43358;50.356;12.456;2023-03-15T02:56:29;94873;;;0.2;97.4
56558;BME280;43358;50.356;12.456;2023-03-15T02:57:32;94870;;;0.2;97.5
56558;BME280;43358;50.356;12.456;2023-03-15T02:58:35;94870;;;0.2;97.6
56558;BME280;43358;50.356;12.456;2023-03-15T02:59:39;94875;;;0.2;97.8
56558;BME280;43358;50.356;12.456;2023-03-15T03:00:40;94873;;;0.2;97.8
56558;BME280;43358;50.356;12.456;2023-03-15T03:01:42;94872;;;0.1;97.9
56558;BME280;43358;50.356;12.456;2023-03-15T03:02:45;94877;;;0.1;97.9
56558;BME280;43358;50.356;12.456;2023-03-15T03:03:46;94881;;;0.1;98
56558;BME280;43358;50.356;12.456;2023-03-15T03:04:48;94879;;;0.1;98
56558;BME280;43358;50.356;12.456;2023-03-15T03:05:50;94884;;;0.1;98
56558;BME280;43358;50.356;12.456;2023-03-15T03:06:52;94887;;;0.1;98.1
56558;BME280;43358;50.356;12.456;2023-03-15T03:07:54;94892;;;0.1;98
56558;BME280;43358;50.356;12.456;2023-03-15T03:08:56;94897;;;0.1;98
56558;BME280;43358;50.356;12.456;2023-03-15T03:09:58;94898;;;0;98.1
56558;BME280;43358;50.356;12.456;2023-03-15T03:11:00;94899;;;0.1;98.3
56558;BME280;43358;50.356;12.456;2023-03-15T03:12:03;94897;;;0.1;98.2
56558;BME280;43358;50.356;12.456;2023-03-15T03:13:04;94901;;;0.1;98.1
56558;BME280;43358;50.356;12.456;2023-03-15T03:14:06;94901;;;0;98
56558;BME280;43358;50.356;12.456;2023-03-15T03:15:09;94903;;;0;98
56558;BME280;43358;50.356;12.456;2023-03-15T03:16:11;94904;;;0;98.1
56558;BME280;43358;50.356;12.456;2023-03-15T03:17:13;94911;;;0;98.1
56558;BME280;43358;50.356;12.456;2023-03-15T03:18:14;94908;;;0;98.1
56558;BME280;43358;50.356;12.456;2023-03-15T03:19:17;94910;;;0;98.1
56558;BME280;43358;50.356;12.456;2023-03-15T03:20:18;94912;;;0;98.1
56558;BME280;43358;50.356;12.456;2023-03-15T03:21:20;94912;;;-0.1;98.1
56558;BME280;43358;50.356;12.456;2023-03-15T03:22:22;94914;;;-0.1;98.1
56558;BME280;43358;50.356;12.456;2023-03-15T03:23:25;94919;;;-0.1;98.2
56558;BME280;43358;50.356;12.456;2023-03-15T03:24:26;94921;;;-0.1;98.2
56558;BME280;43358;50.356;12.456;2023-03-15T03:25:28;94925;;;-0.1;98.2
56558;BME280;43358;50.356;12.456;2023-03-15T03:26:30;94926;;;-0.1;98.3
56558;BME280;43358;50.356;12.456;2023-03-15T03:27:33;94923;;;-0.1;98.3
56558;BME280;43358;50.356;12.456;2023-03-15T03:28:35;94925;;;-0.1;98.3
56558;BME280;43358;50.356;12.456;2023-03-15T03:29:39;94928;;;-0.2;98.3
56558;BME280;43358;50.356;12.456;2023-03-15T03:30:40;94934;;;-0.1;98.3
56558;BME280;43358;50.356;12.456;2023-03-15T03:31:42;94933;;;-0.2;98.2
56558;BME280;43358;50.356;12.456;2023-03-15T03:32:44;94937;;;-0.2;98.1
56558;BME280;43358;50.356;12.456;2023-03-15T03:33:46;94940;;;-0.2;98.1
56558;BME280;43358;50.356;12.456;2023-03-15T03:34:48;94945;;;-0.2;98.1
56558;BME280;43358;50.356;12.456;2023-03-15T03:35:51;94944;;;-0.2;98.2
56558;BME280;43358;50.356;12.456;2023-03-15T03:36:52;94944;;;-0.2;98.2
56558;BME280;43358;50.356;12.456;2023-03-15T03:37:54;94947;;;-0.2;98
56558;BME280;43358;50.356;12.456;2023-03-15T03:38:56;94945;;;-0.2;97.9
56558;BME280;43358;50.356;12.456;2023-03-15T03:39:58;94947;;;-0.2;97.8
56558;BME280;43358;50.356;12.456;2023-03-15T03:41:00;94948;;;-0.2;97.8
56558;BME280;43358;50.356;12.456;2023-03-15T03:42:03;94952;;;-0.2;97.8
56558;BME280;43358;50.356;12.456;2023-03-15T03:43:05;94946;;;-0.2;98
56558;BME280;43358;50.356;12.456;2023-03-15T03:44:06;94954;;;-0.3;98
56558;BME280;43358;50.356;12.456;2023-03-15T03:45:09;94954;;;-0.3;98.1
56558;BME280;43358;50.356;12.456;2023-03-15T03:46:11;94962;;;-0.3;98.2
56558;BME280;43358;50.356;12.456;2023-03-15T03:47:12;94962;;;-0.3;98.2
56558;BME280;43358;50.356;12.456;2023-03-15T03:48:14;94965;;;-0.3;98.3
56558;BME280;43358;50.356;12.456;2023-03-15T03:49:16;94968;;;-0.3;98.3
56558;BME280;43358;50.356;12.456;2023-03-15T03:50:18;94968;;;-0.3;98.3
56558;BME280;43358;50.356;12.456;2023-03-15T03:51:20;94969;;;-0.3;98.3
56558;BME280;43358;50.356;12.456;2023-03-15T03:52:23;94973;;;-0.4;98.3
56558;BME280;43358;50.356;12.456;2023-03-15T03:53:25;94970;;;-0.4;98.3
56558;BME280;43358;50.356;12.456;2023-03-15T03:54:28;94977;;;-0.4;98.3
56558;BME280;43358;50.356;12.456;2023-03-15T03:55:29;94981;;;-0.4;98.3
56558;BME280;43358;50.356;12.456;2023-03-15T03:56:31;94980;;;-0.4;98.3
56558;BME280;43358;50.356;12.456;2023-03-15T03:57:33;94983;;;-0.4;98.3
56558;BME280;43358;50.356;12.456;2023-03-15T03:58:35;94987;;;-0.4;98.3
56558;BME280;43358;50.356;12.456;2023-03-15T03:59:39;94993;;;-0.4;98.3
56558;BME280;43358;50.356;12.456;2023-03-15T04:00:42;94995;;;-0.4;98.3
56558;BME280;43358;50.356;12.456;2023-03-15T04:01:45;94998;;;-0.4;98.2
56558;BME280;43358;50.356;12.456;2023-03-15T04:02:47;95001;;;-0.4;98.2
56558;BME280;43358;50.356;12.456;2023-03-15T04:03:50;95007;;;-0.4;98.1
56558;BME280;43358;50.356;12.456;2023-03-15T04:04:51;95007;;;-0.4;98
56558;BME280;43358;50.356;12.456;2023-03-15T04:05:55;95009;;;-0.5;97.9
56558;BME280;43358;50.356;12.456;2023-03-15T04:06:56;95017;;;-0.5;97.9
56558;BME280;43358;50.356;12.456;2023-03-15T04:07:59;95018;;;-0.5;98
56558;BME280;43358;50.356;12.456;2023-03-15T04:09:00;95022;;;-0.5;97.9
56558;BME280;43358;50.356;12.456;2023-03-15T04:10:03;95021;;;-0.5;97.9
56558;BME280;43358;50.356;12.456;2023-03-15T04:11:04;95025;;;-0.5;97.9
56558;BME280;43358;50.356;12.456;2023-03-15T04:12:07;95022;;;-0.6;97.9
56558;BME280;43358;50.356;12.456;2023-03-15T04:13:08;95021;;;-0.6;98
56558;BME280;43358;50.356;12.456;2023-03-15T04:14:11;95020;;;-0.6;98
56558;BME280;43358;50.356;12.456;2023-03-15T04:15:12;95022;;;-0.6;98
56558;BME280;43358;50.356;12.456;2023-03-15T04:16:15;95022;;;-0.6;98
56558;BME280;43358;50.356;12.456;2023-03-15T04:17:16;95023;;;-0.6;98
56558;BME280;43358;50.356;12.456;2023-03-15T04:18:18;95026;;;-0.6;98
56558;BME280;43358;50.356;12.456;2023-03-15T04:19:20;95030;;;-0.6;98
56558;BME280;43358;50.356;12.456;2023-03-15T04:20:23;95026;;;-0.6;98
56558;BME280;43358;50.356;12.456;2023-03-15T04:21:25;95032;;;-0.6;98.1
56558;BME280;43358;50.356;12.456;2023-03-15T04:22:27;95037;;;-0.6;98.3
56558;BME280;43358;50.356;12.456;2023-03-15T04:23:29;95037;;;-0.6;98.1
56558;BME280;43358;50.356;12.456;2023-03-15T04:24:33;95034;;;-0.6;97.9
56558;BME280;43358;50.356;12.456;2023-03-15T04:25:36;95039;;;-0.6;97.7
56558;BME280;43358;50.356;12.456;2023-03-15T04:26:39;95039;;;-0.6;97.6
56558;BME280;43358;50.356;12.456;2023-03-15T04:27:40;95042;;;-0.6;97.6
56558;BME280;43358;50.356;12.456;2023-03-15T04:28:42;95044;;;-0.7;97.7
56558;BME280;43358;50.356;12.456;2023-03-15T04:29:44;95040;;;-0.7;97.8
56558;BME280;43358;50.356;12.456;2023-03-15T04:30:47;95046;;;-0.7;97.8
56558;BME280;43358;50.356;12.456;2023-03-15T04:31:49;95049;;;-0.7;97.8
56558;BME280;43358;50.356;12.456;2023-03-15T04:32:50;95046;;;-0.7;97.8
56558;BME280;43358;50.356;12.456;2023-03-15T04:33:53;95047;;;-0.8;98
56558;BME280;43358;50.356;12.456;2023-03-15T04:34:55;95045;;;-0.8;98
56558;BME280;43358;50.356;12.456;2023-03-15T04:35:58;95051;;;-0.8;98
56558;BME280;43358;50.356;12.456;2023-03-15T04:36:59;95047;;;-0.8;98.1
56558;BME280;43358;50.356;12.456;2023-03-15T04:38:02;95047;;;-0.8;98.1
56558;BME280;43358;50.356;12.456;2023-03-15T04:39:03;95052;;;-0.8;98.1
56558;BME280;43358;50.356;12.456;2023-03-15T04:40:06;95052;;;-0.8;98
56558;BME280;43358;50.356;12.456;2023-03-15T04:41:07;95052;;;-0.8;98.1
56558;BME280;43358;50.356;12.456;2023-03-15T04:42:10;95055;;;-0.8;98
56558;BME280;43358;50.356;12.456;2023-03-15T04:43:11;95059;;;-0.9;97.8
56558;BME280;43358;50.356;12.456;2023-03-15T04:44:13;95061;;;-0.8;97.8
56558;BME280;43358;50.356;12.456;2023-03-15T04:45:16;95059;;;-0.8;97.8
56558;BME280;43358;50.356;12.456;2023-03-15T04:46:18;95063;;;-0.9;97.6
56558;BME280;43358;50.356;12.456;2023-03-15T04:47:22;95061;;;-0.9;97.6
56558;BME280;43358;50.356;12.456;2023-03-15T04:48:24;95066;;;-0.9;97.6
56558;BME280;43358;50.356;12.456;2023-03-15T04:49:26;95067;;;-0.9;97.6
56558;BME280;43358;50.356;12.456;2023-03-15T04:50:28;95064;;;-0.9;97.7
56558;BME280;43358;50.356;12.456;2023-03-15T04:51:29;95066;;;-0.9;97.6
56558;BME280;43358;50.356;12.456;2023-03-15T04:52:31;95070;;;-0.9;97.6
56558;BME280;43358;50.356;12.456;2023-03-15T04:53:33;95070;;;-0.9;97.5
56558;BME280;43358;50.356;12.456;2023-03-15T04:54:36;95072;;;-1;97.4
56558;BME280;43358;50.356;12.456;2023-03-15T04:55:39;95072;;;-1;97.4
56558;BME280;43358;50.356;12.456;2023-03-15T04:56:41;95069;;;-1;97.4
56558;BME280;43358;50.356;12.456;2023-03-15T04:57:43;95068;;;-1;97.4
56558;BME280;43358;50.356;12.456;2023-03-15T04:58:46;95070;;;-1.1;97.5
56558;BME280;43358;50.356;12.456;2023-03-15T04:59:47;95069;;;-1.1;97.5
56558;BME280;43358;50.356;12.456;2023-03-15T05:00:51;95073;;;-1.1;97.6
56558;BME280;43358;50.356;12.456;2023-03-15T05:01:51;95077;;;-1.1;97.7
56558;BME280;43358;50.356;12.456;2023-03-15T05:02:54;95078;;;-1.1;97.7
56558;BME280;43358;50.356;12.456;2023-03-15T05:03:56;95082;;;-1.1;97.8
56558;BME280;43358;50.356;12.456;2023-03-15T05:04:58;95080;;;-1.1;97.8
56558;BME280;43358;50.356;12.456;2023-03-15T05:06:00;95082;;;-1.1;97.8
56558;BME280;43358;50.356;12.456;2023-03-15T05:07:17;95088;;;-1.2;97.7
56558;BME280;43358;50.356;12.456;2023-03-15T05:08:17;95088;;;-1.2;97.7
56558;BME280;43358;50.356;12.456;2023-03-15T05:09:17;95094;;;-1.2;97.8
56558;BME280;43358;50.356;12.456;2023-03-15T05:10:17;95091;;;-1.2;97.8
56558;BME280;43358;50.356;12.456;2023-03-15T05:12:39;95093;;;-1.2;97.7
56558;BME280;43358;50.356;12.456;2023-03-15T05:13:17;95094;;;-1.2;97.7
56558;BME280;43358;50.356;12.456;2023-03-15T05:14:17;95096;;;-1.2;97.7
56558;BME280;43358;50.356;12.456;2023-03-15T05:15:18;95100;;;-1.2;97.8
56558;BME280;43358;50.356;12.456;2023-03-15T05:16:22;95098;;;-1.2;97.8
56558;BME280;43358;50.356;12.456;2023-03-15T05:17:23;95100;;;-1.3;97.9
56558;BME280;43358;50.356;12.456;2023-03-15T05:18:26;95099;;;-1.3;97.9
56558;BME280;43358;50.356;12.456;2023-03-15T05:19:28;95097;;;-1.3;97.9
56558;BME280;43358;50.356;12.456;2023-03-15T05:20:30;95095;;;-1.3;98
56558;BME280;43358;50.356;12.456;2023-03-15T05:21:32;95096;;;-1.3;98
56558;BME280;43358;50.356;12.456;2023-03-15T05:22:33;95097;;;-1.3;98
56558;BME280;43358;50.356;12.456;2023-03-15T05:23:36;95097;;;-1.3;98
56558;BME280;43358;50.356;12.456;2023-03-15T05:24:37;95102;;;-1.3;98
56558;BME280;43358;50.356;12.456;2023-03-15T05:25:40;95102;;;-1.3;97.8
56558;BME280;43358;50.356;12.456;2023-03-15T05:26:42;95103;;;-1.3;97.6
56558;BME280;43358;50.356;12.456;2023-03-15T05:27:44;95103;;;-1.3;97.4
56558;BME280;43358;50.356;12.456;2023-03-15T05:28:46;95110;;;-1.3;97.3
56558;BME280;43358;50.356;12.456;2023-03-15T05:29:48;95114;;;-1.3;97.4
56558;BME280;43358;50.356;12.456;2023-03-15T05:30:50;95117;;;-1.3;97.6
56558;BME280;43358;50.356;12.456;2023-03-15T05:31:52;95119;;;-1.3;97.7
56558;BME280;43358;50.356;12.456;2023-03-15T05:32:54;95119;;;-1.4;97.8
56558;BME280;43358;50.356;12.456;2023-03-15T05:33:56;95122;;;-1.4;98
56558;BME280;43358;50.356;12.456;2023-03-15T05:34:58;95123;;;-1.4;98
56558;BME280;43358;50.356;12.456;2023-03-15T05:36:00;95123;;;-1.4;98
56558;BME280;43358;50.356;12.456;2023-03-15T05:37:02;95127;;;-1.4;98
56558;BME280;43358;50.356;12.456;2023-03-15T05:38:04;95128;;;-1.4;98
56558;BME280;43358;50.356;12.456;2023-03-15T05:39:06;95129;;;-1.4;98
56558;BME280;43358;50.356;12.456;2023-03-15T05:40:08;95129;;;-1.4;98
56558;BME280;43358;50.356;12.456;2023-03-15T05:41:10;95133;;;-1.4;98
56558;BME280;43358;50.356;12.456;2023-03-15T05:42:12;95131;;;-1.4;98
56558;BME280;43358;50.356;12.456;2023-03-15T05:43:14;95134;;;-1.4;97.9
56558;BME280;43358;50.356;12.456;2023-03-15T05:44:16;95135;;;-1.4;97.9
56558;BME280;43358;50.356;12.456;2023-03-15T05:45:18;95138;;;-1.4;97.7
56558;BME280;43358;50.356;12.456;2023-03-15T05:46:20;95142;;;-1.4;97.6
56558;BME280;43358;50.356;12.456;2023-03-15T05:47:22;95140;;;-1.4;97.5
56558;BME280;43358;50.356;12.456;2023-03-15T05:48:24;95143;;;-1.3;97.1
56558;BME280;43358;50.356;12.456;2023-03-15T05:49:26;95143;;;-1.3;96.7
56558;BME280;43358;50.356;12.456;2023-03-15T05:50:28;95144;;;-1.4;96.7
56558;BME280;43358;50.356;12.456;2023-03-15T05:51:30;95141;;;-1.4;96.7
56558;BME280;43358;50.356;12.456;2023-03-15T05:52:32;95144;;;-1.4;96.9
56558;BME280;43358;50.356;12.456;2023-03-15T05:53:34;95146;;;-1.5;97
56558;BME280;43358;50.356;12.456;2023-03-15T05:54:38;95152;;;-1.5;97.2